Airfield :
LOGIN :

Register | Disclaimer

   EN    FR    IT 

 










Legend :    VFR   Marginal VFR   IFR   Intensive IFR   Very Intensive IFR
Visi :
Ceiling :
>= 8 km
>= 3000ft
5 to 8 km
1000 to 3000 ft
1500m to 5 km
500 to 1000 ft
800 to 1500m
200 to 500 ft
< 800m
< 200 ft
Symbols :   Thunderstorms  Fog  Heavy snow  Heavy precipitations  Wind > 20 kt
SIGMETs :     Misc.  Thunderstorms  Icing  Turbulence  Mountain Waves  Volcanic Ashes






- Airport Elevation : 348 ft
- IATA code : STN


EGSS - London Stansted

CURRENT METAR :
  • 130150Z AUTO 22006KT 9999 NCD 11/08 Q1026

EXPIRED METARs :
  • 130120Z AUTO 22004KT 9999 NCD 11/08 Q1026
  • 130050Z AUTO 20005KT 9999 NCD 12/08 Q1026
  • 130020Z AUTO 20005KT 9999 NCD 13/09 Q1026
  • 122350Z AUTO 19005KT 9999 NCD 13/09 Q1026
  • 122320Z AUTO 18005KT 9999 NCD 14/09 Q1026

TAF TAF EGSS
Valid from the 13 at 00:00 until the 14 at 06:00 UTC


122254Z 1300/1406 19010KT 9999 FEW045
BECMG 1302/1305 26004KT
PROB30
TEMPO 1302/1306 9000
BECMG 1307/1310 26014KT
BECMG 1315/1318 26004KT
TEMPO 1315/1402 7000 RA
TEMPO 1318/1402 BKN010
PROB40
TEMPO 1320/1402 4000 RADZ BKN006
ATIS : +44 1279 669 325



MET'MAP, your aeronautical weather chart ! - Copyright ORBIFLY December 2007 - Disclaimer

ORBIFLY MET'MAP TEAM :

Programming & Development : Alexandra Zaïnal
Concept & original design : Baudouin d'Aumeries
Assistance for programming : Marc-Olivier Méhu
Technical & hardware support : Manuel Goepfert

Contact : metmap@orbifly.com




SOURCES & CREDITS :

   NOAA